createdAt,value
2023-05-17T06:21:39.891Z,1015.97
2023-05-17T06:31:40.068Z,1016.06
2023-05-17T06:41:39.915Z,1015.92
2023-05-17T06:51:39.870Z,1016.14
2023-05-17T07:01:40.236Z,1016.36
2023-05-17T07:11:39.988Z,1016.57
2023-05-17T07:21:40.073Z,1016.58
2023-05-17T07:31:39.919Z,1016.75
2023-05-17T07:41:39.999Z,1016.96
2023-05-17T07:51:39.874Z,1017.16
2023-05-17T08:01:40.142Z,1017.06
2023-05-17T08:11:39.952Z,1017.38
2023-05-17T08:21:40.161Z,1017.39
2023-05-17T08:31:39.942Z,1017.43
2023-05-17T08:41:40.098Z,1017.60
2023-05-17T08:51:40.338Z,1017.59
2023-05-17T09:01:40.417Z,1017.65
2023-05-17T09:11:40.577Z,1017.41
2023-05-17T09:21:40.557Z,1017.32
2023-05-17T09:31:40.529Z,1017.52
2023-05-17T09:41:40.680Z,1017.55
2023-05-17T09:51:40.540Z,1017.38
2023-05-17T10:01:40.502Z,1017.38
2023-05-17T10:11:40.592Z,1017.39
2023-05-17T10:21:40.429Z,1017.36
2023-05-17T10:31:40.406Z,1017.54
2023-05-17T10:41:40.371Z,1017.37
2023-05-17T10:51:40.424Z,1017.33
2023-05-17T11:01:41.786Z,1017.41
2023-05-17T11:11:40.358Z,1017.36
2023-05-17T11:21:40.640Z,1017.40
2023-05-17T11:31:40.589Z,1017.45
2023-05-17T11:41:40.660Z,1017.47
2023-05-17T11:51:40.521Z,1017.53
2023-05-17T12:01:40.368Z,1017.51
2023-05-17T12:11:40.572Z,1017.71
2023-05-17T12:21:40.504Z,1017.70
2023-05-17T12:31:40.364Z,1017.71
2023-05-17T12:41:40.768Z,1017.73
2023-05-17T12:51:40.491Z,1017.81
2023-05-17T13:01:40.472Z,1017.77
2023-05-17T13:11:40.542Z,1017.83
2023-05-17T13:21:40.609Z,1017.79
2023-05-17T13:31:40.788Z,1017.85
2023-05-17T13:41:40.642Z,1017.67
2023-05-17T13:51:40.591Z,1017.66
2023-05-17T14:01:41.480Z,1017.68
2023-05-17T14:11:40.541Z,1017.74
2023-05-17T14:21:40.581Z,1017.82
2023-05-17T14:31:41.692Z,1017.46
2023-05-17T14:41:42.850Z,1017.73
2023-05-17T14:51:40.596Z,1017.78
2023-05-17T15:01:40.545Z,1017.91
2023-05-17T15:11:40.707Z,1017.93
2023-05-17T15:21:40.577Z,1017.89
2023-05-17T15:31:40.527Z,1017.85
2023-05-17T15:41:40.605Z,1017.91
2023-05-17T15:51:40.777Z,1017.89
2023-05-17T16:01:40.833Z,1017.99
2023-05-17T16:11:40.695Z,1018.22
2023-05-17T16:21:40.654Z,1018.20
2023-05-17T16:31:40.650Z,1018.32
2023-05-17T16:41:40.907Z,1018.29
2023-05-17T16:51:40.779Z,1018.64
2023-05-17T17:01:40.663Z,1018.71
2023-05-17T17:11:40.698Z,1018.83
2023-05-17T17:21:40.748Z,1018.82
2023-05-17T17:31:40.810Z,1018.99
2023-05-17T17:41:40.899Z,1018.89
2023-05-17T17:51:40.972Z,1019.08
2023-05-17T18:01:41.024Z,1019.06
2023-05-17T18:11:40.881Z,1019.06
2023-05-17T18:21:40.835Z,1019.24
2023-05-17T18:31:40.749Z,1019.31
2023-05-17T18:41:40.885Z,1019.33
2023-05-17T18:51:41.132Z,1019.41
2023-05-17T19:01:41.209Z,1019.48
2023-05-17T19:11:41.375Z,1019.57
2023-05-17T19:21:41.561Z,1019.72
